Time;durP1;ratioP1;P1;durP2;ratioP2;P2;SDS_P1;SDS_P2;PMS_P1;PMS_P2;Temp;Humidity;BMP_temperature;BMP_pressure;BME280_temperature;BME280_humidity;BME280_pressure;Samples;Min_cycle;Max_cycle;Signal;HPM_P1;HPM_P2
2022/09/19 00:02:19;;;;;;;1.40;0.90;;;;;;;;;;10510686;28;20138;-84
2022/09/19 00:07:19;;;;;;;1.13;0.80;;;;;;;;;;10491611;28;20064;-83
2022/09/19 00:12:19;;;;;;;1.35;1.08;;;;;;;;;;10495761;28;20017;-82
2022/09/19 00:17:20;;;;;;;1.35;0.90;;;;;;;;;;10493056;28;20032;-85
2022/09/19 00:27:26;;;;;;;2.35;0.63;;;;;;;;;;10476470;28;20040;-85
2022/09/19 00:32:27;;;;;;;1.10;0.70;;;;;;;;;;10517917;28;20044;-87
2022/09/19 00:37:28;;;;;;;2.25;0.70;;;;;;;;;;10494323;28;20337;-84
2022/09/19 00:42:33;;;;;;;0.85;0.50;;;;;;;;;;10482181;28;20025;-86
2022/09/19 00:47:41;;;;;;;1.45;0.80;;;;;;;;;;10494749;28;20037;-85
2022/09/19 00:52:45;;;;;;;0.60;0.60;;;;;;;;;;10504128;28;20033;-82
2022/09/19 00:57:52;;;;;;;1.63;0.70;;;;;;;;;;10492197;28;20017;-84
2022/09/19 01:02:54;;;;;;;1.30;0.98;;;;;;;;;;10511190;28;20031;-85
2022/09/19 01:08:01;;;;;;;1.27;1.00;;;;;;;;;;10514543;28;20072;-83
2022/09/19 01:13:10;;;;;;;0.70;0.70;;;;;;;;;;10477023;28;20025;-85
2022/09/19 01:18:12;;;;;;;2.80;0.70;;;;;;;;;;10524838;28;20037;-85
2022/09/19 01:23:23;;;;;;;1.92;1.17;;;;;;;;;;10503206;28;20051;-84
2022/09/19 01:28:32;;;;;;;3.03;1.05;;;;;;;;;;10455916;28;20446;-86
2022/09/19 01:33:36;;;;;;;1.00;0.90;;;;;;;;;;10487281;28;20080;-83
2022/09/19 01:38:38;;;;;;;0.88;0.70;;;;;;;;;;10505737;28;20029;-84
2022/09/19 01:43:40;;;;;;;1.70;0.83;;;;;;;;;;10502884;28;20025;-86
2022/09/19 01:48:46;;;;;;;1.38;1.02;;;;;;;;;;10492656;28;20056;-84
2022/09/19 01:54:07;;;;;;;1.55;1.33;;;;;;;;;;10462330;28;20037;-88
2022/09/19 01:59:51;;;;;;;1.40;1.23;;;;;;;;;;10451996;28;20385;-87
2022/09/19 02:04:52;;;;;;;1.65;1.40;;;;;;;;;;10451876;28;20128;-87
2022/09/19 02:09:53;;;;;;;3.35;1.50;;;;;;;;;;10476255;28;20117;-88
2022/09/19 02:14:57;;;;;;;3.85;1.38;;;;;;;;;;10511521;28;20032;-81
2022/09/19 02:20:07;;;;;;;3.08;1.70;;;;;;;;;;10472653;28;20052;-86
2022/09/19 02:25:13;;;;;;;2.08;1.30;;;;;;;;;;10477203;28;20035;-86
2022/09/19 02:30:15;;;;;;;3.50;1.50;;;;;;;;;;10476797;28;20048;-85
2022/09/19 02:35:20;;;;;;;2.38;1.40;;;;;;;;;;10443235;28;20075;-82
2022/09/19 02:40:35;;;;;;;1.92;1.55;;;;;;;;;;10440533;28;20033;-82
2022/09/19 02:45:43;;;;;;;2.08;1.58;;;;;;;;;;10439285;28;20049;-85
2022/09/19 02:50:59;;;;;;;3.50;2.30;;;;;;;;;;10474859;28;20025;-84
2022/09/19 02:56:03;;;;;;;3.47;1.98;;;;;;;;;;10450357;28;20106;-86
2022/09/19 03:01:14;;;;;;;3.08;1.70;;;;;;;;;;10456933;28;20128;-82
2022/09/19 03:06:18;;;;;;;4.15;2.20;;;;;;;;;;10471955;28;20044;-89
2022/09/19 03:11:19;;;;;;;3.33;2.10;;;;;;;;;;10496398;28;20036;-85
2022/09/19 03:16:26;;;;;;;6.07;2.35;;;;;;;;;;10530452;28;20075;-88
2022/09/19 03:21:27;;;;;;;4.53;2.10;;;;;;;;;;10497683;28;20029;-88
2022/09/19 03:26:31;;;;;;;3.45;1.90;;;;;;;;;;10513522;28;20029;-87
2022/09/19 03:31:35;;;;;;;4.10;2.15;;;;;;;;;;10476785;28;20041;-84
2022/09/19 03:36:40;;;;;;;3.85;2.10;;;;;;;;;;10502626;28;20051;-88
2022/09/19 03:41:53;;;;;;;4.82;1.90;;;;;;;;;;10519977;28;20051;-87
2022/09/19 03:47:02;;;;;;;4.20;2.17;;;;;;;;;;10465117;28;20084;-88
2022/09/19 03:52:02;;;;;;;3.65;2.13;;;;;;;;;;10458094;28;20033;-90
2022/09/19 03:57:03;;;;;;;4.32;2.20;;;;;;;;;;10461774;28;20116;-88
2022/09/19 04:02:03;;;;;;;2.85;2.13;;;;;;;;;;10479912;28;20153;-88
2022/09/19 04:07:07;;;;;;;3.42;2.55;;;;;;;;;;10479970;28;20036;-86
2022/09/19 04:12:08;;;;;;;4.30;2.70;;;;;;;;;;10633722;22;20108;-86
2022/09/19 04:17:18;;;;;;;6.20;2.55;;;;;;;;;;10456454;28;20035;-88
2022/09/19 04:22:22;;;;;;;3.88;2.58;;;;;;;;;;10476911;28;20036;-85
2022/09/19 04:27:47;;;;;;;4.85;2.80;;;;;;;;;;10452715;28;20053;-88
2022/09/19 04:32:51;;;;;;;4.77;2.70;;;;;;;;;;10423684;28;20092;-85
2022/09/19 04:37:56;;;;;;;3.70;2.40;;;;;;;;;;10414819;28;20049;-81
2022/09/19 04:42:57;;;;;;;5.07;2.60;;;;;;;;;;10396308;28;20084;-82
2022/09/19 04:48:00;;;;;;;4.20;2.50;;;;;;;;;;10409530;28;20041;-78
2022/09/19 04:53:05;;;;;;;3.88;2.53;;;;;;;;;;10427935;28;20048;-83
2022/09/19 04:58:10;;;;;;;4.60;2.90;;;;;;;;;;10397940;28;20084;-83
2022/09/19 05:03:15;;;;;;;5.13;3.00;;;;;;;;;;10433878;28;20037;-85
2022/09/19 05:08:18;;;;;;;4.88;3.13;;;;;;;;;;10423649;28;20040;-83
2022/09/19 05:13:19;;;;;;;7.22;3.17;;;;;;;;;;10419594;28;20037;-86
2022/09/19 05:18:21;;;;;;;7.30;3.40;;;;;;;;;;10485303;28;20037;-85
2022/09/19 05:23:24;;;;;;;6.22;3.60;;;;;;;;;;10555596;23;20045;-86
2022/09/19 05:28:27;;;;;;;6.32;3.50;;;;;;;;;;10544794;23;20072;-88
2022/09/19 05:33:33;;;;;;;6.32;3.05;;;;;;;;;;10501573;23;20093;-86
2022/09/19 05:38:44;;;;;;;8.10;4.37;;;;;;;;;;10480269;28;20699;-84
2022/09/19 05:44:04;;;;;;;6.18;3.95;;;;;;;;;;10471505;28;20029;-84
2022/09/19 05:49:06;;;;;;;7.85;3.60;;;;;;;;;;10549209;23;20033;-84
2022/09/19 05:54:07;;;;;;;4.65;3.38;;;;;;;;;;10620089;23;20053;-86
2022/09/19 05:59:53;;;;;;;7.28;3.53;;;;;;;;;;10824410;22;20105;-85
2022/09/19 06:04:54;;;;;;;6.07;3.40;;;;;;;;;;10697996;22;20037;-83
2022/09/19 06:09:56;;;;;;;7.18;3.60;;;;;;;;;;10482818;28;20045;-89
2022/09/19 06:15:00;;;;;;;5.78;3.78;;;;;;;;;;10431775;28;20400;-88
2022/09/19 06:20:01;;;;;;;7.70;3.70;;;;;;;;;;10422992;28;20052;-90
2022/09/19 06:25:20;;;;;;;9.10;3.90;;;;;;;;;;10414085;28;20148;-87
2022/09/19 06:30:24;;;;;;;9.68;4.25;;;;;;;;;;10417313;28;20049;-90
2022/09/19 06:35:47;;;;;;;6.43;3.80;;;;;;;;;;10426028;28;20500;-89
2022/09/19 06:40:50;;;;;;;;;;;;;;;;;;10432558;28;20028;-84
2022/09/19 06:46:23;;;;;;;6.68;3.97;;;;;;;;;;10464378;28;19976;-83
2022/09/19 06:51:46;;;;;;;6.95;4.00;;;;;;;;;;10415018;28;20129;-86
2022/09/19 06:56:49;;;;;;;;;;;;;;;;;;10424334;28;20040;-87
2022/09/19 07:01:51;;;;;;;8.48;4.50;;;;;;;;;;10433835;28;19923;-87
2022/09/19 07:07:13;;;;;;;8.10;3.85;;;;;;;;;;10425887;28;20091;-86
2022/09/19 07:12:21;;;;;;;10.68;5.03;;;;;;;;;;10423261;28;20084;-85
2022/09/19 07:17:25;;;;;;;10.80;4.47;;;;;;;;;;10409742;28;20067;-82
2022/09/19 07:22:47;;;;;;;7.97;4.20;;;;;;;;;;10419408;28;20048;-83
2022/09/19 07:27:57;;;;;;;7.85;4.03;;;;;;;;;;10438237;28;20045;-81
2022/09/19 07:32:59;;;;;;;6.53;4.15;;;;;;;;;;10431708;28;20017;-85
2022/09/19 07:38:01;;;;;;;10.27;4.10;;;;;;;;;;10450455;28;20096;-84
2022/09/19 07:43:12;;;;;;;6.72;3.88;;;;;;;;;;10453323;28;20487;-86
2022/09/19 07:48:31;;;;;;;9.60;4.03;;;;;;;;;;10424834;28;20052;-85
2022/09/19 07:54:04;;;;;;;10.82;4.00;;;;;;;;;;10406530;28;20049;-86
2022/09/19 07:59:04;;;;;;;7.72;3.70;;;;;;;;;;10444496;28;20024;-85
2022/09/19 08:04:17;;;;;;;8.38;3.50;;;;;;;;;;10416422;28;20528;-86
2022/09/19 08:09:26;;;;;;;4.82;3.25;;;;;;;;;;10420654;28;20041;-84
2022/09/19 08:14:44;;;;;;;7.30;3.90;;;;;;;;;;10410983;28;20045;-81
2022/09/19 08:19:45;;;;;;;6.03;3.47;;;;;;;;;;10409602;28;20046;-83
2022/09/19 08:24:48;;;;;;;10.57;4.70;;;;;;;;;;10454953;28;20108;-81
2022/09/19 08:29:50;;;;;;;6.00;3.73;;;;;;;;;;10448707;28;20045;-82
2022/09/19 08:34:52;;;;;;;5.18;3.13;;;;;;;;;;10550391;22;20029;-82
2022/09/19 08:45:36;;;;;;;5.47;3.40;;;;;;;;;;10467905;28;20014;-82
2022/09/19 08:50:44;;;;;;;7.47;3.85;;;;;;;;;;10464380;28;20053;-82
2022/09/19 08:55:50;;;;;;;7.47;3.63;;;;;;;;;;10426699;28;20021;-83
2022/09/19 09:00:54;;;;;;;5.45;2.92;;;;;;;;;;10448748;28;20057;-81
2022/09/19 09:05:59;;;;;;;5.97;3.58;;;;;;;;;;10445382;28;20036;-81
2022/09/19 09:11:20;;;;;;;6.15;3.13;;;;;;;;;;10451908;28;20032;-84
2022/09/19 09:16:22;;;;;;;5.57;2.97;;;;;;;;;;10418280;28;20168;-84
2022/09/19 09:21:28;;;;;;;6.83;3.50;;;;;;;;;;10405251;28;20037;-83
2022/09/19 09:26:36;;;;;;;8.38;4.65;;;;;;;;;;10403284;28;20041;-86
2022/09/19 09:31:40;;;;;;;6.72;2.90;;;;;;;;;;10417452;28;20025;-81
2022/09/19 09:37:21;;;;;;;6.53;3.42;;;;;;;;;;10380300;28;20162;-83
2022/09/19 09:42:33;;;;;;;6.55;3.20;;;;;;;;;;10380671;28;20389;-83
2022/09/19 09:47:48;;;;;;;6.10;3.00;;;;;;;;;;10375517;28;20042;-85
2022/09/19 09:53:12;;;;;;;6.68;3.13;;;;;;;;;;10379406;28;20167;-84
2022/09/19 09:58:21;;;;;;;4.07;2.80;;;;;;;;;;10374378;28;20038;-82
2022/09/19 10:03:34;;;;;;;6.75;2.92;;;;;;;;;;10354073;28;20125;-84
2022/09/19 10:08:46;;;;;;;2.92;2.50;;;;;;;;;;10445425;23;20209;-87
2022/09/19 10:14:01;;;;;;;3.28;2.25;;;;;;;;;;10331012;28;20118;-83
2022/09/19 10:19:25;;;;;;;4.82;2.72;;;;;;;;;;10300988;28;20487;-83
2022/09/19 10:24:53;;;;;;;3.83;2.30;;;;;;;;;;10298006;28;20042;-84
2022/09/19 10:30:19;;;;;;;3.28;2.20;;;;;;;;;;10292743;28;20414;-84
2022/09/19 10:35:31;;;;;;;6.18;2.42;;;;;;;;;;10328310;28;20158;-88
2022/09/19 10:40:32;;;;;;;5.10;2.13;;;;;;;;;;10329934;28;20074;-82
2022/09/19 10:45:35;;;;;;;4.20;2.47;;;;;;;;;;10343771;28;20058;-81
2022/09/19 10:50:41;;;;;;;2.92;2.10;;;;;;;;;;10479779;23;20051;-81
2022/09/19 10:55:44;;;;;;;3.85;2.50;;;;;;;;;;10369765;28;20034;-82
2022/09/19 11:00:52;;;;;;;2.90;2.25;;;;;;;;;;10366946;28;20042;-84
2022/09/19 11:06:14;;;;;;;3.72;2.40;;;;;;;;;;10377807;28;20038;-83
2022/09/19 11:11:25;;;;;;;4.95;2.42;;;;;;;;;;10393766;28;20041;-86
2022/09/19 11:16:37;;;;;;;4.47;3.10;;;;;;;;;;10372836;28;20030;-87
2022/09/19 11:21:52;;;;;;;4.80;2.58;;;;;;;;;;11056421;22;20041;-84
2022/09/19 11:32:16;;;;;;;5.93;2.73;;;;;;;;;;10540389;23;20053;-87
2022/09/19 11:37:27;;;;;;;3.58;2.13;;;;;;;;;;10415081;28;20037;-84
2022/09/19 11:42:32;;;;;;;4.70;2.40;;;;;;;;;;10407586;28;20153;-85
2022/09/19 11:47:50;;;;;;;4.60;2.70;;;;;;;;;;10410364;28;20064;-83
2022/09/19 11:52:57;;;;;;;4.70;3.03;;;;;;;;;;10413707;28;20025;-80
2022/09/19 11:58:09;;;;;;;5.30;2.53;;;;;;;;;;10579474;23;20043;-83
2022/09/19 12:03:20;;;;;;;5.03;2.67;;;;;;;;;;10451805;28;20037;-82
2022/09/19 12:08:55;;;;;;;3.72;2.35;;;;;;;;;;10446769;28;20045;-85
2022/09/19 12:13:59;;;;;;;4.70;2.53;;;;;;;;;;10452438;28;20036;-81
2022/09/19 12:19:05;;;;;;;4.28;2.30;;;;;;;;;;10429682;28;20100;-80
2022/09/19 12:29:34;;;;;;;12.30;8.27;;;;;;;;;;10409931;28;20114;-82
2022/09/19 12:34:39;;;;;;;3.47;2.10;;;;;;;;;;10480490;23;20034;-81
2022/09/19 12:39:46;;;;;;;3.67;1.77;;;;;;;;;;10554623;23;20098;-90
2022/09/19 12:44:47;;;;;;;3.20;1.80;;;;;;;;;;10393875;28;20108;-80
2022/09/19 12:49:57;;;;;;;2.10;1.90;;;;;;;;;;10412144;28;20134;-81
2022/09/19 12:55:04;;;;;;;3.17;1.67;;;;;;;;;;10417022;28;20100;-83
2022/09/19 13:00:06;;;;;;;3.42;1.77;;;;;;;;;;10408698;28;20468;-80
2022/09/19 13:05:07;;;;;;;3.33;1.85;;;;;;;;;;10416815;28;20037;-86
2022/09/19 13:10:08;;;;;;;2.80;1.73;;;;;;;;;;10439384;28;20485;-79
2022/09/19 13:15:18;;;;;;;5.10;2.10;;;;;;;;;;10435894;28;20033;-86
2022/09/19 13:25:43;;;;;;;4.22;2.38;;;;;;;;;;10421551;28;20121;-81
2022/09/19 13:30:50;;;;;;;4.18;2.13;;;;;;;;;;10426576;28;20052;-83
2022/09/19 13:35:52;;;;;;;5.28;2.83;;;;;;;;;;10485882;28;20009;-82
2022/09/19 13:41:02;;;;;;;3.13;2.30;;;;;;;;;;10507881;28;20533;-82
2022/09/19 13:46:10;;;;;;;3.13;1.80;;;;;;;;;;10462470;28;20061;-83
2022/09/19 13:51:34;;;;;;;5.95;2.15;;;;;;;;;;10472170;28;20036;-87
2022/09/19 13:56:36;;;;;;;3.80;1.80;;;;;;;;;;10472906;28;20037;-83
2022/09/19 14:01:39;;;;;;;3.65;2.28;;;;;;;;;;10604275;22;20020;-82
2022/09/19 14:12:22;;;;;;;5.97;2.60;;;;;;;;;;10723985;23;19912;-83
2022/09/19 14:17:25;;;;;;;5.50;2.80;;;;;;;;;;10423354;28;20026;-84
2022/09/19 14:22:38;;;;;;;4.87;2.40;;;;;;;;;;10405240;28;20025;-85
2022/09/19 14:27:50;;;;;;;3.92;2.63;;;;;;;;;;10898313;23;20038;-83
2022/09/19 14:33:00;;;;;;;3.72;2.83;;;;;;;;;;10355448;28;20045;-83
2022/09/19 14:38:19;;;;;;;5.65;3.38;;;;;;;;;;10306296;28;20042;-80
2022/09/19 14:43:29;;;;;;;6.35;2.80;;;;;;;;;;10341978;28;20042;-82
2022/09/19 14:48:36;;;;;;;4.20;2.20;;;;;;;;;;10340974;28;20132;-82
2022/09/19 14:53:38;;;;;;;3.55;2.10;;;;;;;;;;10367840;28;20038;-79
2022/09/19 14:58:39;;;;;;;2.90;1.60;;;;;;;;;;10366672;28;20036;-79
2022/09/19 15:03:54;;;;;;;4.85;2.55;;;;;;;;;;10371204;28;20060;-79
2022/09/19 15:08:54;;;;;;;3.75;1.95;;;;;;;;;;10311881;28;20061;-79
2022/09/19 15:13:55;;;;;;;3.43;2.70;;;;;;;;;;10330278;28;20469;-81
2022/09/19 15:18:56;;;;;;;6.80;4.88;;;;;;;;;;10314451;28;20297;-81
2022/09/19 15:23:58;;;;;;;5.15;3.30;;;;;;;;;;10321495;28;20652;-84
2022/09/19 15:29:01;;;;;;;5.88;3.35;;;;;;;;;;10379096;28;20038;-81
2022/09/19 15:34:01;;;;;;;7.23;3.30;;;;;;;;;;10414401;28;20093;-83
2022/09/19 15:39:03;;;;;;;5.10;2.63;;;;;;;;;;10381974;28;20462;-86
2022/09/19 15:44:07;;;;;;;6.88;3.10;;;;;;;;;;10371749;28;20030;-83
2022/09/19 15:49:20;;;;;;;3.65;2.78;;;;;;;;;;10372436;28;20431;-83
2022/09/19 15:54:26;;;;;;;5.80;3.05;;;;;;;;;;10370985;28;20045;-82
2022/09/19 15:59:37;;;;;;;7.18;3.33;;;;;;;;;;10379066;28;20046;-82
2022/09/19 16:04:45;;;;;;;9.27;5.35;;;;;;;;;;10373634;28;20116;-82
2022/09/19 16:09:48;;;;;;;8.43;5.97;;;;;;;;;;10351580;28;20484;-82
2022/09/19 16:15:12;;;;;;;10.57;5.97;;;;;;;;;;10379798;28;20033;-83
2022/09/19 16:20:31;;;;;;;8.95;5.25;;;;;;;;;;10392809;28;20057;-79
2022/09/19 16:25:39;;;;;;;9.18;5.53;;;;;;;;;;10414435;28;20102;-84
2022/09/19 16:31:02;;;;;;;7.43;4.97;;;;;;;;;;10416046;28;20026;-83
2022/09/19 16:36:07;;;;;;;19.70;7.68;;;;;;;;;;10413706;28;20029;-84
2022/09/19 16:41:08;;;;;;;7.03;3.78;;;;;;;;;;10416337;28;20026;-84
2022/09/19 16:46:14;;;;;;;13.80;5.95;;;;;;;;;;10423936;28;20036;-86
2022/09/19 16:51:17;;;;;;;6.57;4.20;;;;;;;;;;10862255;23;20177;-82
2022/09/19 16:56:20;;;;;;;10.27;5.10;;;;;;;;;;10447488;28;20361;-88
2022/09/19 17:01:20;;;;;;;6.22;4.47;;;;;;;;;;10436130;28;20037;-90
2022/09/19 17:06:22;;;;;;;6.65;3.90;;;;;;;;;;10448327;28;20038;-88
2022/09/19 17:11:22;;;;;;;7.00;5.00;;;;;;;;;;10444239;28;20029;-86
2022/09/19 17:21:35;;;;;;;14.65;8.45;;;;;;;;;;10677973;23;20098;-82
2022/09/19 17:26:35;;;;;;;6.72;5.07;;;;;;;;;;10493190;28;20041;-80
2022/09/19 17:31:35;;;;;;;6.63;3.97;;;;;;;;;;10449604;28;20487;-83
2022/09/19 17:36:36;;;;;;;10.63;5.67;;;;;;;;;;10449819;28;20029;-85
2022/09/19 17:41:37;;;;;;;10.07;4.30;;;;;;;;;;10431419;28;20061;-84
2022/09/19 17:46:37;;;;;;;8.97;5.10;;;;;;;;;;10441126;28;20056;-83
2022/09/19 17:51:38;;;;;;;9.48;5.60;;;;;;;;;;10458917;28;20366;-83
2022/09/19 17:56:39;;;;;;;7.97;5.68;;;;;;;;;;10445250;28;20045;-78
2022/09/19 18:06:58;;;;;;;8.38;5.43;;;;;;;;;;10461978;28;20044;-84
2022/09/19 18:12:03;;;;;;;7.03;4.07;;;;;;;;;;10466164;28;20039;-87
2022/09/19 18:17:03;;;;;;;8.32;4.88;;;;;;;;;;10491616;28;20414;-84
2022/09/19 18:22:04;;;;;;;6.75;4.25;;;;;;;;;;11603872;23;20081;-86
2022/09/19 18:27:05;;;;;;;6.18;3.28;;;;;;;;;;10399982;28;20062;-85
2022/09/19 18:32:06;;;;;;;5.43;3.17;;;;;;;;;;10373807;28;20041;-82
2022/09/19 18:37:06;;;;;;;4.78;3.60;;;;;;;;;;10411571;28;20058;-84
2022/09/19 18:42:06;;;;;;;6.13;3.35;;;;;;;;;;10406398;28;20057;-85
2022/09/19 18:47:07;;;;;;;4.50;2.87;;;;;;;;;;10410685;28;20046;-83
2022/09/19 18:52:07;;;;;;;4.77;3.60;;;;;;;;;;10424561;28;20022;-83
2022/09/19 18:57:08;;;;;;;6.82;3.72;;;;;;;;;;10419068;28;20281;-83
2022/09/19 19:02:10;;;;;;;4.68;3.03;;;;;;;;;;10407070;28;20040;-83
2022/09/19 19:07:10;;;;;;;5.47;3.15;;;;;;;;;;10443900;23;20038;-84
2022/09/19 19:12:11;;;;;;;6.30;3.15;;;;;;;;;;10420227;28;20026;-83
2022/09/19 19:17:12;;;;;;;4.53;3.28;;;;;;;;;;10416847;28;20029;-81
2022/09/19 19:22:12;;;;;;;4.53;3.08;;;;;;;;;;10415494;28;20121;-85
2022/09/19 19:27:13;;;;;;;6.03;3.70;;;;;;;;;;10399938;28;20053;-84
2022/09/19 19:32:13;;;;;;;6.28;3.80;;;;;;;;;;10389284;28;20332;-84
2022/09/19 19:37:14;;;;;;;6.88;3.80;;;;;;;;;;10378121;28;20053;-85
2022/09/19 19:42:14;;;;;;;9.07;5.10;;;;;;;;;;10375228;28;20101;-83
2022/09/19 19:47:14;;;;;;;6.78;4.35;;;;;;;;;;10397058;28;20029;-84
2022/09/19 19:52:16;;;;;;;5.75;4.47;;;;;;;;;;10414571;28;20056;-86
2022/09/19 19:57:18;;;;;;;7.13;5.03;;;;;;;;;;10495692;23;20118;-86
2022/09/19 20:02:19;;;;;;;8.50;5.47;;;;;;;;;;10356096;28;20041;-89
2022/09/19 20:07:20;;;;;;;10.82;5.68;;;;;;;;;;10360432;28;20085;-83
2022/09/19 20:12:23;;;;;;;10.10;6.90;;;;;;;;;;10349673;28;20038;-83
2022/09/19 20:17:24;;;;;;;14.15;6.65;;;;;;;;;;10352465;28;20041;-82
2022/09/19 20:22:25;;;;;;;9.00;5.95;;;;;;;;;;10348067;28;20038;-83
2022/09/19 20:27:25;;;;;;;10.85;6.57;;;;;;;;;;10366044;28;20031;-84
2022/09/19 20:32:27;;;;;;;10.32;6.22;;;;;;;;;;10395418;28;20090;-83
2022/09/19 20:37:30;;;;;;;8.60;6.43;;;;;;;;;;10397989;28;20018;-84
2022/09/19 20:42:41;;;;;;;11.50;6.65;;;;;;;;;;10382555;28;20640;-84
2022/09/19 20:47:43;;;;;;;7.55;5.57;;;;;;;;;;10390216;28;20045;-84
2022/09/19 20:52:44;;;;;;;10.88;7.07;;;;;;;;;;10342720;28;20042;-83
2022/09/19 20:57:46;;;;;;;12.60;6.47;;;;;;;;;;10376359;28;20382;-87
2022/09/19 21:02:48;;;;;;;8.27;5.95;;;;;;;;;;10386902;28;20060;-84
2022/09/19 21:07:48;;;;;;;9.70;6.70;;;;;;;;;;10391856;28;20061;-81
2022/09/19 21:12:49;;;;;;;9.48;5.65;;;;;;;;;;10420595;28;20175;-84
2022/09/19 21:17:49;;;;;;;7.07;5.30;;;;;;;;;;10389588;28;20125;-84
2022/09/19 21:22:52;;;;;;;8.23;5.57;;;;;;;;;;10384233;28;20038;-84
2022/09/19 21:27:53;;;;;;;9.07;5.95;;;;;;;;;;10399519;28;20033;-82
2022/09/19 21:32:55;;;;;;;;;;;;;;;;;;10393123;28;20038;-84
2022/09/19 21:37:56;;;;;;;9.15;5.18;;;;;;;;;;10402575;28;19921;-82
2022/09/19 21:42:56;;;;;;;6.90;4.50;;;;;;;;;;10417508;28;20385;-85
2022/09/19 21:47:57;;;;;;;5.20;3.60;;;;;;;;;;10420548;28;20058;-84
2022/09/19 21:52:58;;;;;;;6.22;4.45;;;;;;;;;;10426486;28;20082;-84
2022/09/19 21:57:59;;;;;;;4.25;3.55;;;;;;;;;;10447893;28;20041;-83
2022/09/19 22:03:01;;;;;;;4.03;3.55;;;;;;;;;;10452758;28;20045;-82
2022/09/19 22:08:02;;;;;;;5.80;3.47;;;;;;;;;;10392650;28;20057;-83
2022/09/19 22:13:02;;;;;;;5.22;3.25;;;;;;;;;;10401389;28;20030;-85
2022/09/19 22:18:03;;;;;;;4.45;3.38;;;;;;;;;;10385084;28;20076;-85
2022/09/19 22:23:03;;;;;;;4.53;3.38;;;;;;;;;;10399298;28;20132;-82
2022/09/19 22:28:04;;;;;;;5.03;3.17;;;;;;;;;;10387060;28;20042;-82
2022/09/19 22:33:05;;;;;;;6.37;3.40;;;;;;;;;;10391379;28;20284;-85
2022/09/19 22:38:06;;;;;;;4.15;2.97;;;;;;;;;;10375643;28;20401;-87
2022/09/19 22:43:06;;;;;;;5.60;3.40;;;;;;;;;;10399630;28;20046;-87
2022/09/19 22:48:07;;;;;;;5.65;2.97;;;;;;;;;;10359350;28;20309;-81
2022/09/19 22:53:09;;;;;;;5.57;3.00;;;;;;;;;;10392489;28;20069;-82
2022/09/19 22:58:12;;;;;;;5.82;3.38;;;;;;;;;;10385268;28;20327;-80
2022/09/19 23:03:13;;;;;;;3.70;2.93;;;;;;;;;;10390734;28;20037;-81
2022/09/19 23:08:14;;;;;;;4.88;2.72;;;;;;;;;;10392730;28;20053;-82
2022/09/19 23:18:34;;;;;;;4.70;3.05;;;;;;;;;;10369952;28;20080;-87
2022/09/19 23:23:36;;;;;;;3.08;2.55;;;;;;;;;;10405017;28;20022;-87
2022/09/19 23:28:36;;;;;;;4.57;2.38;;;;;;;;;;10424150;28;20074;-84
2022/09/19 23:33:36;;;;;;;3.33;2.43;;;;;;;;;;10431295;28;20055;-84
2022/09/19 23:38:37;;;;;;;5.10;2.60;;;;;;;;;;10414245;28;20926;-87
2022/09/19 23:43:37;;;;;;;3.70;2.55;;;;;;;;;;10412565;28;20053;-85
2022/09/19 23:48:38;;;;;;;6.88;2.80;;;;;;;;;;10411972;28;20052;-85
2022/09/19 23:53:41;;;;;;;5.45;2.60;;;;;;;;;;10448274;28;20080;-85
2022/09/19 23:58:41;;;;;;;3.17;2.15;;;;;;;;;;10406831;28;20045;-86
